sensor_id;sensor_type;location;lat;lon;timestamp;temperature;humidity
21271;DHT22;10795;50.796;3.860;2022-12-18T00:01:53;-5.40;99.90
21271;DHT22;10795;50.796;3.860;2022-12-18T00:04:23;-5.50;99.90
21271;DHT22;10795;50.796;3.860;2022-12-18T00:06:50;-5.50;99.90
21271;DHT22;10795;50.796;3.860;2022-12-18T00:09:16;-5.40;99.90
21271;DHT22;10795;50.796;3.860;2022-12-18T00:11:42;-5.00;99.90
21271;DHT22;10795;50.796;3.860;2022-12-18T00:14:10;-5.10;99.90
21271;DHT22;10795;50.796;3.860;2022-12-18T00:16:36;-4.60;99.90
21271;DHT22;10795;50.796;3.860;2022-12-18T00:19:03;-3.60;99.90
21271;DHT22;10795;50.796;3.860;2022-12-18T00:21:30;-2.30;99.90
21271;DHT22;10795;50.796;3.860;2022-12-18T00:23:57;-2.80;99.90
21271;DHT22;10795;50.796;3.860;2022-12-18T00:26:25;-4.00;99.90
21271;DHT22;10795;50.796;3.860;2022-12-18T00:28:59;-4.50;99.90
21271;DHT22;10795;50.796;3.860;2022-12-18T00:31:25;-5.10;99.90
21271;DHT22;10795;50.796;3.860;2022-12-18T00:33:55;-5.60;99.90
21271;DHT22;10795;50.796;3.860;2022-12-18T00:36:33;-5.80;99.90
21271;DHT22;10795;50.796;3.860;2022-12-18T00:39:01;-5.70;99.90
21271;DHT22;10795;50.796;3.860;2022-12-18T00:41:27;-5.70;99.90
21271;DHT22;10795;50.796;3.860;2022-12-18T00:44:13;-5.90;99.90
21271;DHT22;10795;50.796;3.860;2022-12-18T00:46:40;-5.80;99.90
21271;DHT22;10795;50.796;3.860;2022-12-18T00:49:06;-6.00;99.90
21271;DHT22;10795;50.796;3.860;2022-12-18T00:51:32;-5.80;99.90
21271;DHT22;10795;50.796;3.860;2022-12-18T00:53:58;-5.90;99.90
21271;DHT22;10795;50.796;3.860;2022-12-18T00:56:24;-6.00;99.90
21271;DHT22;10795;50.796;3.860;2022-12-18T00:58:51;-6.10;99.90
21271;DHT22;10795;50.796;3.860;2022-12-18T01:01:17;-6.10;99.90
21271;DHT22;10795;50.796;3.860;2022-12-18T01:03:43;-6.20;99.90
21271;DHT22;10795;50.796;3.860;2022-12-18T01:06:12;-6.20;99.90
21271;DHT22;10795;50.796;3.860;2022-12-18T01:08:38;-6.20;99.90
21271;DHT22;10795;50.796;3.860;2022-12-18T01:11:12;-6.40;99.90
21271;DHT22;10795;50.796;3.860;2022-12-18T01:13:39;-6.40;99.90
21271;DHT22;10795;50.796;3.860;2022-12-18T01:16:05;-6.40;99.90
21271;DHT22;10795;50.796;3.860;2022-12-18T01:18:34;-6.40;99.90
21271;DHT22;10795;50.796;3.860;2022-12-18T01:21:00;-6.40;99.90
21271;DHT22;10795;50.796;3.860;2022-12-18T01:23:26;-6.50;99.90
21271;DHT22;10795;50.796;3.860;2022-12-18T01:25:52;-6.60;99.90
21271;DHT22;10795;50.796;3.860;2022-12-18T01:28:18;-6.50;99.90
21271;DHT22;10795;50.796;3.860;2022-12-18T01:30:43;-6.60;99.90
21271;DHT22;10795;50.796;3.860;2022-12-18T01:33:09;-6.70;99.90
21271;DHT22;10795;50.796;3.860;2022-12-18T01:35:42;-6.90;99.90
21271;DHT22;10795;50.796;3.860;2022-12-18T01:38:09;-6.80;99.90
21271;DHT22;10795;50.796;3.860;2022-12-18T01:40:34;-6.80;99.90
21271;DHT22;10795;50.796;3.860;2022-12-18T01:43:00;-6.70;99.90
21271;DHT22;10795;50.796;3.860;2022-12-18T01:45:31;-6.70;99.90
21271;DHT22;10795;50.796;3.860;2022-12-18T01:48:06;-6.80;99.90
21271;DHT22;10795;50.796;3.860;2022-12-18T01:50:40;-6.80;99.90
21271;DHT22;10795;50.796;3.860;2022-12-18T01:53:19;-6.70;99.90
21271;DHT22;10795;50.796;3.860;2022-12-18T01:55:56;-6.80;99.90
21271;DHT22;10795;50.796;3.860;2022-12-18T01:59:13;-6.60;99.90
21271;DHT22;10795;50.796;3.860;2022-12-18T02:01:13;-6.80;99.90
21271;DHT22;10795;50.796;3.860;2022-12-18T02:03:43;-6.80;99.90
21271;DHT22;10795;50.796;3.860;2022-12-18T02:06:29;-6.90;99.90
21271;DHT22;10795;50.796;3.860;2022-12-18T02:09:05;-6.80;99.90
21271;DHT22;10795;50.796;3.860;2022-12-18T02:11:58;-7.00;99.90
21271;DHT22;10795;50.796;3.860;2022-12-18T02:14:49;-7.10;99.90
21271;DHT22;10795;50.796;3.860;2022-12-18T02:17:23;-7.10;99.90
21271;DHT22;10795;50.796;3.860;2022-12-18T02:28:11;-6.70;99.90
21271;DHT22;10795;50.796;3.860;2022-12-18T02:30:39;-6.90;99.90
21271;DHT22;10795;50.796;3.860;2022-12-18T02:33:07;-6.80;99.90
21271;DHT22;10795;50.796;3.860;2022-12-18T02:35:34;-6.70;99.90
21271;DHT22;10795;50.796;3.860;2022-12-18T02:38:03;-6.70;99.90
21271;DHT22;10795;50.796;3.860;2022-12-18T02:40:32;-6.90;99.90
21271;DHT22;10795;50.796;3.860;2022-12-18T02:43:08;-6.90;99.90
21271;DHT22;10795;50.796;3.860;2022-12-18T02:45:34;-7.00;99.90
21271;DHT22;10795;50.796;3.860;2022-12-18T02:48:00;-6.80;99.90
21271;DHT22;10795;50.796;3.860;2022-12-18T02:58:45;-6.40;99.90
21271;DHT22;10795;50.796;3.860;2022-12-18T03:01:30;-6.40;99.90
21271;DHT22;10795;50.796;3.860;2022-12-18T03:04:03;-6.70;99.90
21271;DHT22;10795;50.796;3.860;2022-12-18T03:06:33;-6.80;99.90
21271;DHT22;10795;50.796;3.860;2022-12-18T03:09:07;-6.90;99.90
21271;DHT22;10795;50.796;3.860;2022-12-18T03:11:38;-6.90;99.90
21271;DHT22;10795;50.796;3.860;2022-12-18T03:14:25;-7.00;99.90
21271;DHT22;10795;50.796;3.860;2022-12-18T03:16:59;-7.10;99.90
21271;DHT22;10795;50.796;3.860;2022-12-18T03:19:28;-7.00;99.90
21271;DHT22;10795;50.796;3.860;2022-12-18T03:21:59;-6.90;99.90
21271;DHT22;10795;50.796;3.860;2022-12-18T03:24:33;-6.80;99.90
21271;DHT22;10795;50.796;3.860;2022-12-18T03:27:06;-6.90;99.90
21271;DHT22;10795;50.796;3.860;2022-12-18T03:29:46;-7.00;99.90
21271;DHT22;10795;50.796;3.860;2022-12-18T03:32:21;-6.80;99.90
21271;DHT22;10795;50.796;3.860;2022-12-18T03:34:51;-6.50;99.90
21271;DHT22;10795;50.796;3.860;2022-12-18T03:37:21;-6.80;99.90
21271;DHT22;10795;50.796;3.860;2022-12-18T03:39:47;-6.90;99.90
21271;DHT22;10795;50.796;3.860;2022-12-18T03:42:48;-7.00;99.90
21271;DHT22;10795;50.796;3.860;2022-12-18T03:45:24;-7.10;99.90
21271;DHT22;10795;50.796;3.860;2022-12-18T03:48:01;-7.00;99.90
21271;DHT22;10795;50.796;3.860;2022-12-18T03:51:39;-7.00;99.90
21271;DHT22;10795;50.796;3.860;2022-12-18T03:53:41;-7.10;99.90
21271;DHT22;10795;50.796;3.860;2022-12-18T03:56:13;-7.20;99.90
21271;DHT22;10795;50.796;3.860;2022-12-18T03:58:41;-7.30;99.90
21271;DHT22;10795;50.796;3.860;2022-12-18T04:01:23;-7.30;99.90
21271;DHT22;10795;50.796;3.860;2022-12-18T04:03:52;-7.40;99.90
21271;DHT22;10795;50.796;3.860;2022-12-18T04:06:19;-7.50;99.90
21271;DHT22;10795;50.796;3.860;2022-12-18T04:08:46;-7.50;99.90
21271;DHT22;10795;50.796;3.860;2022-12-18T04:11:16;-7.40;99.90
21271;DHT22;10795;50.796;3.860;2022-12-18T04:13:44;-7.30;99.90
21271;DHT22;10795;50.796;3.860;2022-12-18T04:16:17;-7.30;99.90
21271;DHT22;10795;50.796;3.860;2022-12-18T04:18:44;-7.20;99.90
21271;DHT22;10795;50.796;3.860;2022-12-18T04:21:10;-7.20;99.90
21271;DHT22;10795;50.796;3.860;2022-12-18T04:23:37;-7.20;99.90
21271;DHT22;10795;50.796;3.860;2022-12-18T04:26:02;-7.20;99.90
21271;DHT22;10795;50.796;3.860;2022-12-18T04:28:54;-7.10;99.90
21271;DHT22;10795;50.796;3.860;2022-12-18T04:31:21;-7.20;99.90
21271;DHT22;10795;50.796;3.860;2022-12-18T04:33:47;-7.10;99.90
21271;DHT22;10795;50.796;3.860;2022-12-18T04:36:13;-7.20;99.90
21271;DHT22;10795;50.796;3.860;2022-12-18T04:38:40;-7.10;99.90
21271;DHT22;10795;50.796;3.860;2022-12-18T04:41:10;-6.60;99.90
21271;DHT22;10795;50.796;3.860;2022-12-18T04:43:36;-5.70;99.90
21271;DHT22;10795;50.796;3.860;2022-12-18T04:46:05;-6.00;99.90
21271;DHT22;10795;50.796;3.860;2022-12-18T04:48:32;-6.40;99.90
21271;DHT22;10795;50.796;3.860;2022-12-18T04:50:58;-6.40;99.90
21271;DHT22;10795;50.796;3.860;2022-12-18T04:53:23;-6.40;99.90
21271;DHT22;10795;50.796;3.860;2022-12-18T04:55:49;-6.30;99.90
21271;DHT22;10795;50.796;3.860;2022-12-18T04:58:15;-6.20;99.90
21271;DHT22;10795;50.796;3.860;2022-12-18T05:00:41;-6.40;99.90
21271;DHT22;10795;50.796;3.860;2022-12-18T05:03:07;-6.60;99.90
21271;DHT22;10795;50.796;3.860;2022-12-18T05:05:35;-6.90;99.90
21271;DHT22;10795;50.796;3.860;2022-12-18T05:08:01;-6.90;99.90
21271;DHT22;10795;50.796;3.860;2022-12-18T05:10:26;-6.90;99.90
21271;DHT22;10795;50.796;3.860;2022-12-18T05:12:52;-7.00;99.90
21271;DHT22;10795;50.796;3.860;2022-12-18T05:15:29;-7.00;99.90
21271;DHT22;10795;50.796;3.860;2022-12-18T05:17:56;-7.10;99.90
21271;DHT22;10795;50.796;3.860;2022-12-18T05:20:23;-7.20;99.90
21271;DHT22;10795;50.796;3.860;2022-12-18T05:22:49;-7.10;99.90
21271;DHT22;10795;50.796;3.860;2022-12-18T05:25:15;-7.10;99.90
21271;DHT22;10795;50.796;3.860;2022-12-18T05:27:41;-7.00;99.90
21271;DHT22;10795;50.796;3.860;2022-12-18T05:30:07;-6.70;99.90
21271;DHT22;10795;50.796;3.860;2022-12-18T05:32:33;-6.30;99.90
21271;DHT22;10795;50.796;3.860;2022-12-18T05:34:59;-6.60;99.90
21271;DHT22;10795;50.796;3.860;2022-12-18T05:37:25;-6.90;99.90
21271;DHT22;10795;50.796;3.860;2022-12-18T05:39:51;-7.00;99.90
21271;DHT22;10795;50.796;3.860;2022-12-18T05:42:16;-7.00;99.90
21271;DHT22;10795;50.796;3.860;2022-12-18T05:44:43;-7.10;99.90
21271;DHT22;10795;50.796;3.860;2022-12-18T05:47:09;-7.20;99.90
21271;DHT22;10795;50.796;3.860;2022-12-18T05:49:34;-7.30;99.90
21271;DHT22;10795;50.796;3.860;2022-12-18T05:52:00;-7.30;99.90
21271;DHT22;10795;50.796;3.860;2022-12-18T05:54:29;-7.30;99.90
21271;DHT22;10795;50.796;3.860;2022-12-18T05:56:55;-7.40;99.90
21271;DHT22;10795;50.796;3.860;2022-12-18T05:59:21;-7.40;99.90
21271;DHT22;10795;50.796;3.860;2022-12-18T06:01:47;-7.30;99.90
21271;DHT22;10795;50.796;3.860;2022-12-18T06:04:12;-7.10;99.90
21271;DHT22;10795;50.796;3.860;2022-12-18T06:06:38;-7.00;99.90
21271;DHT22;10795;50.796;3.860;2022-12-18T06:09:04;-7.00;99.90
21271;DHT22;10795;50.796;3.860;2022-12-18T06:11:36;-7.00;99.90
21271;DHT22;10795;50.796;3.860;2022-12-18T06:14:04;-7.10;99.90
21271;DHT22;10795;50.796;3.860;2022-12-18T06:16:30;-7.20;99.90
21271;DHT22;10795;50.796;3.860;2022-12-18T06:19:00;-7.20;99.90
21271;DHT22;10795;50.796;3.860;2022-12-18T06:21:27;-7.10;99.90
21271;DHT22;10795;50.796;3.860;2022-12-18T06:23:53;-7.00;99.90
21271;DHT22;10795;50.796;3.860;2022-12-18T06:26:19;-6.70;99.90
21271;DHT22;10795;50.796;3.860;2022-12-18T06:28:45;-6.30;99.90
21271;DHT22;10795;50.796;3.860;2022-12-18T06:31:11;-6.50;99.90
21271;DHT22;10795;50.796;3.860;2022-12-18T06:33:37;-6.60;99.90
21271;DHT22;10795;50.796;3.860;2022-12-18T06:36:06;-6.70;99.90
21271;DHT22;10795;50.796;3.860;2022-12-18T06:38:34;-6.80;99.90
21271;DHT22;10795;50.796;3.860;2022-12-18T06:41:00;-6.80;99.90
21271;DHT22;10795;50.796;3.860;2022-12-18T06:43:26;-6.60;99.90
21271;DHT22;10795;50.796;3.860;2022-12-18T06:45:59;-6.60;99.90
21271;DHT22;10795;50.796;3.860;2022-12-18T06:48:25;-6.40;99.90
21271;DHT22;10795;50.796;3.860;2022-12-18T06:50:51;-6.60;99.90
21271;DHT22;10795;50.796;3.860;2022-12-18T06:53:16;-6.80;99.90
21271;DHT22;10795;50.796;3.860;2022-12-18T06:55:42;-6.90;99.90
21271;DHT22;10795;50.796;3.860;2022-12-18T06:58:08;-6.70;99.90
21271;DHT22;10795;50.796;3.860;2022-12-18T07:00:34;-6.60;99.90
21271;DHT22;10795;50.796;3.860;2022-12-18T07:03:00;-6.20;99.90
21271;DHT22;10795;50.796;3.860;2022-12-18T07:05:25;-6.10;99.90
21271;DHT22;10795;50.796;3.860;2022-12-18T07:07:51;-6.10;99.90
21271;DHT22;10795;50.796;3.860;2022-12-18T07:10:17;-6.20;99.90
21271;DHT22;10795;50.796;3.860;2022-12-18T07:12:43;-6.30;99.90
21271;DHT22;10795;50.796;3.860;2022-12-18T07:15:09;-6.30;99.90
21271;DHT22;10795;50.796;3.860;2022-12-18T07:17:35;-6.30;99.90
21271;DHT22;10795;50.796;3.860;2022-12-18T07:20:01;-6.20;99.90
21271;DHT22;10795;50.796;3.860;2022-12-18T07:22:27;-6.40;99.90
21271;DHT22;10795;50.796;3.860;2022-12-18T07:24:53;-6.40;99.90
21271;DHT22;10795;50.796;3.860;2022-12-18T07:27:19;-6.50;99.90
21271;DHT22;10795;50.796;3.860;2022-12-18T07:29:45;-6.30;99.90
21271;DHT22;10795;50.796;3.860;2022-12-18T07:32:11;-5.80;99.90
21271;DHT22;10795;50.796;3.860;2022-12-18T07:34:36;-6.10;99.90
21271;DHT22;10795;50.796;3.860;2022-12-18T07:37:02;-6.10;99.90
21271;DHT22;10795;50.796;3.860;2022-12-18T07:39:34;-5.40;99.90
21271;DHT22;10795;50.796;3.860;2022-12-18T07:42:00;-5.20;99.90
21271;DHT22;10795;50.796;3.860;2022-12-18T07:44:44;-5.60;99.90
21271;DHT22;10795;50.796;3.860;2022-12-18T07:47:10;-5.50;99.90
21271;DHT22;10795;50.796;3.860;2022-12-18T07:49:36;-5.80;99.90
21271;DHT22;10795;50.796;3.860;2022-12-18T07:52:02;-5.10;99.90
21271;DHT22;10795;50.796;3.860;2022-12-18T07:54:27;-5.00;99.90
21271;DHT22;10795;50.796;3.860;2022-12-18T07:56:53;-5.50;99.90
21271;DHT22;10795;50.796;3.860;2022-12-18T07:59:19;-5.80;99.90
21271;DHT22;10795;50.796;3.860;2022-12-18T08:01:45;-5.40;99.90
21271;DHT22;10795;50.796;3.860;2022-12-18T08:04:11;-5.60;99.90
21271;DHT22;10795;50.796;3.860;2022-12-18T08:06:37;-5.30;99.90
21271;DHT22;10795;50.796;3.860;2022-12-18T08:09:02;-5.50;99.90
21271;DHT22;10795;50.796;3.860;2022-12-18T08:11:29;-5.50;99.90
21271;DHT22;10795;50.796;3.860;2022-12-18T08:13:55;-4.70;99.90
21271;DHT22;10795;50.796;3.860;2022-12-18T08:16:21;-4.80;99.90
21271;DHT22;10795;50.796;3.860;2022-12-18T08:18:47;-4.40;99.90
21271;DHT22;10795;50.796;3.860;2022-12-18T08:21:17;-4.50;99.90
21271;DHT22;10795;50.796;3.860;2022-12-18T08:23:44;-4.70;99.90
21271;DHT22;10795;50.796;3.860;2022-12-18T08:26:11;-5.00;99.90
21271;DHT22;10795;50.796;3.860;2022-12-18T08:28:37;-4.80;99.90
21271;DHT22;10795;50.796;3.860;2022-12-18T08:31:03;-4.80;99.90
21271;DHT22;10795;50.796;3.860;2022-12-18T08:33:29;-4.50;99.90
21271;DHT22;10795;50.796;3.860;2022-12-18T08:35:55;-4.40;99.90
21271;DHT22;10795;50.796;3.860;2022-12-18T08:38:20;-4.30;99.90
21271;DHT22;10795;50.796;3.860;2022-12-18T08:40:46;-4.40;99.90
21271;DHT22;10795;50.796;3.860;2022-12-18T08:43:12;-4.40;99.90
21271;DHT22;10795;50.796;3.860;2022-12-18T08:45:56;-4.40;99.90
21271;DHT22;10795;50.796;3.860;2022-12-18T08:48:22;-4.30;99.90
21271;DHT22;10795;50.796;3.860;2022-12-18T08:50:56;-4.20;99.90
21271;DHT22;10795;50.796;3.860;2022-12-18T08:53:21;-4.10;99.90
21271;DHT22;10795;50.796;3.860;2022-12-18T08:55:50;-3.70;99.90
21271;DHT22;10795;50.796;3.860;2022-12-18T08:58:16;-3.60;99.90
21271;DHT22;10795;50.796;3.860;2022-12-18T09:00:41;-3.60;99.90
21271;DHT22;10795;50.796;3.860;2022-12-18T09:03:17;-3.50;99.90
21271;DHT22;10795;50.796;3.860;2022-12-18T09:05:45;-2.80;99.90
21271;DHT22;10795;50.796;3.860;2022-12-18T09:08:12;-2.60;99.90
21271;DHT22;10795;50.796;3.860;2022-12-18T09:10:45;-2.80;99.90
21271;DHT22;10795;50.796;3.860;2022-12-18T09:13:12;-2.70;99.90
21271;DHT22;10795;50.796;3.860;2022-12-18T09:15:46;-3.00;99.90
21271;DHT22;10795;50.796;3.860;2022-12-18T09:18:13;-3.20;99.90
21271;DHT22;10795;50.796;3.860;2022-12-18T09:20:39;-3.50;99.90
21271;DHT22;10795;50.796;3.860;2022-12-18T09:23:06;-3.70;99.90
21271;DHT22;10795;50.796;3.860;2022-12-18T09:25:32;-3.50;99.90
21271;DHT22;10795;50.796;3.860;2022-12-18T09:27:59;-3.10;99.90
21271;DHT22;10795;50.796;3.860;2022-12-18T09:30:26;-3.20;99.90
21271;DHT22;10795;50.796;3.860;2022-12-18T09:32:52;-3.30;99.90
21271;DHT22;10795;50.796;3.860;2022-12-18T09:35:19;-3.00;99.90
21271;DHT22;10795;50.796;3.860;2022-12-18T09:37:45;-2.70;99.90
21271;DHT22;10795;50.796;3.860;2022-12-18T09:40:19;-2.70;99.90
21271;DHT22;10795;50.796;3.860;2022-12-18T09:42:50;-2.90;99.90
21271;DHT22;10795;50.796;3.860;2022-12-18T09:45:18;-2.50;99.90
21271;DHT22;10795;50.796;3.860;2022-12-18T09:47:47;-2.40;99.90
21271;DHT22;10795;50.796;3.860;2022-12-18T09:50:35;-2.50;99.90
21271;DHT22;10795;50.796;3.860;2022-12-18T09:53:06;-2.00;99.90
21271;DHT22;10795;50.796;3.860;2022-12-18T09:55:43;-1.40;99.90
21271;DHT22;10795;50.796;3.860;2022-12-18T10:00:39;-1.70;99.90
21271;DHT22;10795;50.796;3.860;2022-12-18T10:03:13;-2.20;99.90
21271;DHT22;10795;50.796;3.860;2022-12-18T10:13:51;-2.50;99.90
21271;DHT22;10795;50.796;3.860;2022-12-18T10:19:25;-2.60;99.90
21271;DHT22;10795;50.796;3.860;2022-12-18T10:22:11;-2.50;99.90
21271;DHT22;10795;50.796;3.860;2022-12-18T10:27:56;-2.90;99.90
21271;DHT22;10795;50.796;3.860;2022-12-18T10:30:24;-2.60;99.90
21271;DHT22;10795;50.796;3.860;2022-12-18T10:32:50;-2.70;99.90
21271;DHT22;10795;50.796;3.860;2022-12-18T10:35:25;-2.50;99.90
21271;DHT22;10795;50.796;3.860;2022-12-18T10:38:01;-2.50;99.90
21271;DHT22;10795;50.796;3.860;2022-12-18T10:40:29;-1.90;99.90
21271;DHT22;10795;50.796;3.860;2022-12-18T10:43:09;-2.10;99.90
21271;DHT22;10795;50.796;3.860;2022-12-18T10:45:36;-2.40;99.90
21271;DHT22;10795;50.796;3.860;2022-12-18T10:48:01;-2.30;99.90
21271;DHT22;10795;50.796;3.860;2022-12-18T10:50:32;-2.40;99.90
21271;DHT22;10795;50.796;3.860;2022-12-18T10:53:00;-2.40;99.90
21271;DHT22;10795;50.796;3.860;2022-12-18T10:55:31;-2.30;99.90
21271;DHT22;10795;50.796;3.860;2022-12-18T10:58:19;-2.20;99.90
21271;DHT22;10795;50.796;3.860;2022-12-18T11:01:08;-2.20;99.90
21271;DHT22;10795;50.796;3.860;2022-12-18T11:06:13;-1.70;99.90
21271;DHT22;10795;50.796;3.860;2022-12-18T11:08:40;-1.80;99.90
21271;DHT22;10795;50.796;3.860;2022-12-18T11:11:21;-1.80;99.90
21271;DHT22;10795;50.796;3.860;2022-12-18T11:14:06;-1.70;99.90
21271;DHT22;10795;50.796;3.860;2022-12-18T11:16:45;-1.80;99.90
21271;DHT22;10795;50.796;3.860;2022-12-18T11:19:33;-1.60;99.90
21271;DHT22;10795;50.796;3.860;2022-12-18T11:22:01;-1.80;99.90
21271;DHT22;10795;50.796;3.860;2022-12-18T11:24:35;-1.60;99.90
21271;DHT22;10795;50.796;3.860;2022-12-18T11:27:05;-1.50;99.90
21271;DHT22;10795;50.796;3.860;2022-12-18T11:29:37;-1.40;99.90
21271;DHT22;10795;50.796;3.860;2022-12-18T11:32:34;-1.40;99.90
21271;DHT22;10795;50.796;3.860;2022-12-18T11:40:47;-1.40;99.90
21271;DHT22;10795;50.796;3.860;2022-12-18T11:43:39;-1.40;99.90
21271;DHT22;10795;50.796;3.860;2022-12-18T11:46:13;-1.40;99.90
21271;DHT22;10795;50.796;3.860;2022-12-18T11:48:50;-1.20;99.90
21271;DHT22;10795;50.796;3.860;2022-12-18T11:51:27;-1.30;99.90
21271;DHT22;10795;50.796;3.860;2022-12-18T11:53:54;-1.20;99.90
21271;DHT22;10795;50.796;3.860;2022-12-18T11:56:30;-1.10;99.90
21271;DHT22;10795;50.796;3.860;2022-12-18T11:59:01;-1.10;99.90
21271;DHT22;10795;50.796;3.860;2022-12-18T12:01:50;-1.10;99.90
21271;DHT22;10795;50.796;3.860;2022-12-18T12:07:17;-1.20;99.90
21271;DHT22;10795;50.796;3.860;2022-12-18T12:23:40;-0.80;99.90
21271;DHT22;10795;50.796;3.860;2022-12-18T12:26:12;-0.80;99.90
21271;DHT22;10795;50.796;3.860;2022-12-18T12:28:48;-0.80;99.90
21271;DHT22;10795;50.796;3.860;2022-12-18T12:31:41;-0.40;99.90
21271;DHT22;10795;50.796;3.860;2022-12-18T12:34:19;-0.60;99.90
21271;DHT22;10795;50.796;3.860;2022-12-18T12:37:03;-0.70;99.90
21271;DHT22;10795;50.796;3.860;2022-12-18T12:39:36;-0.90;99.90
21271;DHT22;10795;50.796;3.860;2022-12-18T12:42:08;-0.70;99.90
21271;DHT22;10795;50.796;3.860;2022-12-18T12:44:56;-0.40;99.90
21271;DHT22;10795;50.796;3.860;2022-12-18T12:47:30;-0.50;99.90
21271;DHT22;10795;50.796;3.860;2022-12-18T12:49:59;-0.50;99.90
21271;DHT22;10795;50.796;3.860;2022-12-18T12:52:37;-0.50;99.90
21271;DHT22;10795;50.796;3.860;2022-12-18T12:55:12;-0.40;99.90
21271;DHT22;10795;50.796;3.860;2022-12-18T12:57:41;-0.50;99.90
21271;DHT22;10795;50.796;3.860;2022-12-18T13:00:16;-0.20;99.90
21271;DHT22;10795;50.796;3.860;2022-12-18T13:02:58;-0.30;99.90
21271;DHT22;10795;50.796;3.860;2022-12-18T13:05:38;-0.30;99.90
21271;DHT22;10795;50.796;3.860;2022-12-18T13:08:11;-0.20;99.90
21271;DHT22;10795;50.796;3.860;2022-12-18T13:10:41;-0.20;99.90
21271;DHT22;10795;50.796;3.860;2022-12-18T13:13:15;-0.20;99.90
21271;DHT22;10795;50.796;3.860;2022-12-18T13:16:03;-0.30;99.90
21271;DHT22;10795;50.796;3.860;2022-12-18T13:18:29;-0.10;99.90
21271;DHT22;10795;50.796;3.860;2022-12-18T13:25:53;-0.40;99.90
21271;DHT22;10795;50.796;3.860;2022-12-18T13:31:03;-0.30;99.90
21271;DHT22;10795;50.796;3.860;2022-12-18T13:38:37;-0.10;99.90
21271;DHT22;10795;50.796;3.860;2022-12-18T13:44:09;0.10;99.90
21271;DHT22;10795;50.796;3.860;2022-12-18T13:46:44;0.10;99.90
21271;DHT22;10795;50.796;3.860;2022-12-18T13:51:50;0.00;99.90
21271;DHT22;10795;50.796;3.860;2022-12-18T13:54:36;-0.20;99.90
21271;DHT22;10795;50.796;3.860;2022-12-18T13:57:04;-0.30;99.90
21271;DHT22;10795;50.796;3.860;2022-12-18T13:59:36;-0.50;99.90
21271;DHT22;10795;50.796;3.860;2022-12-18T14:02:23;-0.30;99.90
21271;DHT22;10795;50.796;3.860;2022-12-18T14:04:49;-0.30;99.90
21271;DHT22;10795;50.796;3.860;2022-12-18T14:07:27;-0.30;99.90
21271;DHT22;10795;50.796;3.860;2022-12-18T14:09:55;-0.40;99.90
21271;DHT22;10795;50.796;3.860;2022-12-18T14:12:27;-0.40;99.90
21271;DHT22;10795;50.796;3.860;2022-12-18T14:18:13;-0.30;99.90
21271;DHT22;10795;50.796;3.860;2022-12-18T14:20:44;-0.30;99.90
21271;DHT22;10795;50.796;3.860;2022-12-18T14:25:54;-0.30;99.90
21271;DHT22;10795;50.796;3.860;2022-12-18T14:28:20;-0.20;99.90
21271;DHT22;10795;50.796;3.860;2022-12-18T14:30:47;-0.40;99.90
21271;DHT22;10795;50.796;3.860;2022-12-18T14:35:51;-0.10;99.90
21271;DHT22;10795;50.796;3.860;2022-12-18T14:38:28;-0.10;99.90
21271;DHT22;10795;50.796;3.860;2022-12-18T14:41:05;-0.10;99.90
21271;DHT22;10795;50.796;3.860;2022-12-18T14:43:36;-0.10;99.90
21271;DHT22;10795;50.796;3.860;2022-12-18T14:46:04;0.10;99.90
21271;DHT22;10795;50.796;3.860;2022-12-18T14:48:37;0.00;99.90
21271;DHT22;10795;50.796;3.860;2022-12-18T14:51:15;0.00;99.90
21271;DHT22;10795;50.796;3.860;2022-12-18T14:54:04;0.00;99.90
21271;DHT22;10795;50.796;3.860;2022-12-18T14:56:35;0.10;99.90
21271;DHT22;10795;50.796;3.860;2022-12-18T14:59:12;0.00;99.90
21271;DHT22;10795;50.796;3.860;2022-12-18T15:02:37;0.00;99.90
21271;DHT22;10795;50.796;3.860;2022-12-18T15:05:14;0.10;99.90
21271;DHT22;10795;50.796;3.860;2022-12-18T15:07:46;0.10;99.90
21271;DHT22;10795;50.796;3.860;2022-12-18T15:10:21;0.10;99.90
21271;DHT22;10795;50.796;3.860;2022-12-18T15:18:03;0.10;99.90
21271;DHT22;10795;50.796;3.860;2022-12-18T15:26:11;0.00;99.90
21271;DHT22;10795;50.796;3.860;2022-12-18T15:28:51;-0.10;99.90
21271;DHT22;10795;50.796;3.860;2022-12-18T15:31:34;-0.10;99.90
21271;DHT22;10795;50.796;3.860;2022-12-18T15:34:13;-0.10;99.90
21271;DHT22;10795;50.796;3.860;2022-12-18T15:36:39;-0.10;99.90
21271;DHT22;10795;50.796;3.860;2022-12-18T15:39:06;0.00;99.90
21271;DHT22;10795;50.796;3.860;2022-12-18T15:41:35;0.30;99.90
21271;DHT22;10795;50.796;3.860;2022-12-18T15:44:01;0.30;99.90
21271;DHT22;10795;50.796;3.860;2022-12-18T15:46:28;0.10;99.90
21271;DHT22;10795;50.796;3.860;2022-12-18T15:48:55;0.50;99.90
21271;DHT22;10795;50.796;3.860;2022-12-18T15:51:34;0.40;99.90
21271;DHT22;10795;50.796;3.860;2022-12-18T15:54:08;0.50;99.90
21271;DHT22;10795;50.796;3.860;2022-12-18T15:56:36;0.60;99.90
21271;DHT22;10795;50.796;3.860;2022-12-18T15:59:21;0.40;99.90
21271;DHT22;10795;50.796;3.860;2022-12-18T16:01:48;0.40;99.90
21271;DHT22;10795;50.796;3.860;2022-12-18T16:04:16;0.20;99.90
21271;DHT22;10795;50.796;3.860;2022-12-18T16:06:43;0.30;99.90
21271;DHT22;10795;50.796;3.860;2022-12-18T16:09:09;0.10;99.90
21271;DHT22;10795;50.796;3.860;2022-12-18T16:11:36;0.20;99.90
21271;DHT22;10795;50.796;3.860;2022-12-18T16:14:11;0.40;99.90
21271;DHT22;10795;50.796;3.860;2022-12-18T16:16:38;0.40;99.90
21271;DHT22;10795;50.796;3.860;2022-12-18T16:19:03;0.20;99.90
21271;DHT22;10795;50.796;3.860;2022-12-18T16:21:29;0.40;99.90
21271;DHT22;10795;50.796;3.860;2022-12-18T16:23:55;0.40;99.90
21271;DHT22;10795;50.796;3.860;2022-12-18T16:26:21;0.40;99.90
21271;DHT22;10795;50.796;3.860;2022-12-18T16:28:46;0.40;99.90
21271;DHT22;10795;50.796;3.860;2022-12-18T16:31:12;0.40;99.90
21271;DHT22;10795;50.796;3.860;2022-12-18T16:33:38;0.30;99.90
21271;DHT22;10795;50.796;3.860;2022-12-18T16:36:04;0.30;99.90
21271;DHT22;10795;50.796;3.860;2022-12-18T16:38:30;0.30;99.90
21271;DHT22;10795;50.796;3.860;2022-12-18T16:40:55;0.30;99.90
21271;DHT22;10795;50.796;3.860;2022-12-18T16:43:40;0.30;99.90
21271;DHT22;10795;50.796;3.860;2022-12-18T16:46:05;0.30;99.90
21271;DHT22;10795;50.796;3.860;2022-12-18T16:48:34;0.20;99.90
21271;DHT22;10795;50.796;3.860;2022-12-18T16:51:04;0.40;99.90
21271;DHT22;10795;50.796;3.860;2022-12-18T16:53:31;0.50;99.90
21271;DHT22;10795;50.796;3.860;2022-12-18T16:55:57;0.40;99.90
21271;DHT22;10795;50.796;3.860;2022-12-18T16:58:23;0.50;99.90
21271;DHT22;10795;50.796;3.860;2022-12-18T17:00:49;0.40;99.90
21271;DHT22;10795;50.796;3.860;2022-12-18T17:03:15;0.40;99.90
21271;DHT22;10795;50.796;3.860;2022-12-18T17:05:40;0.40;99.90
21271;DHT22;10795;50.796;3.860;2022-12-18T17:08:06;0.50;99.90
21271;DHT22;10795;50.796;3.860;2022-12-18T17:10:34;0.60;99.90
21271;DHT22;10795;50.796;3.860;2022-12-18T17:13:00;0.80;99.90
21271;DHT22;10795;50.796;3.860;2022-12-18T17:15:26;0.70;99.90
21271;DHT22;10795;50.796;3.860;2022-12-18T17:17:51;0.50;99.90
21271;DHT22;10795;50.796;3.860;2022-12-18T17:20:17;0.50;99.90
21271;DHT22;10795;50.796;3.860;2022-12-18T17:22:43;0.50;99.90
21271;DHT22;10795;50.796;3.860;2022-12-18T17:25:08;0.50;99.90
21271;DHT22;10795;50.796;3.860;2022-12-18T17:27:34;0.40;99.90
21271;DHT22;10795;50.796;3.860;2022-12-18T17:30:00;0.40;99.90